createdAt,value
2023-03-12T00:01:03.508Z,1.22
2023-03-12T00:03:04.292Z,1.92
2023-03-12T00:05:05.645Z,1.87
2023-03-12T00:07:08.034Z,0.53
2023-03-12T00:09:08.933Z,0.85
2023-03-12T00:11:10.950Z,0.80
2023-03-12T00:13:11.832Z,0.90
2023-03-12T00:15:12.625Z,0.72
2023-03-12T00:17:13.534Z,0.20
2023-03-12T00:19:14.334Z,0.10
2023-03-12T00:21:15.517Z,3.02
2023-03-12T00:23:16.405Z,0.50
2023-03-12T00:25:17.333Z,1.65
2023-03-12T00:27:18.501Z,1.42
2023-03-12T00:29:19.325Z,1.00
2023-03-12T00:31:26.525Z,0.10
2023-03-12T00:33:28.458Z,0.80
2023-03-12T00:35:29.357Z,0.25
2023-03-12T00:37:32.154Z,0.45
2023-03-12T00:39:33.321Z,0.40
2023-03-12T00:41:34.218Z,0.68
2023-03-12T00:43:35.510Z,0.20
2023-03-12T00:45:36.297Z,0.30
2023-03-12T00:47:37.331Z,0.40
2023-03-12T00:49:38.335Z,0.30
2023-03-12T00:51:39.121Z,0.10
2023-03-12T00:53:39.926Z,0.37
2023-03-12T00:55:40.826Z,0.17
2023-03-12T00:57:41.716Z,1.27
2023-03-12T00:59:42.742Z,0.20
2023-03-12T01:01:43.631Z,0.57
2023-03-12T01:03:44.772Z,0.62
2023-03-12T01:05:45.809Z,0.95
2023-03-12T01:07:46.789Z,1.45
2023-03-12T01:09:47.581Z,0.53
2023-03-12T01:11:48.477Z,0.82
2023-03-12T01:13:49.685Z,0.75
2023-03-12T01:15:51.069Z,0.60
2023-03-12T01:17:51.964Z,0.65
2023-03-12T01:19:52.854Z,0.23
2023-03-12T01:21:53.743Z,0.53
2023-03-12T01:23:55.067Z,1.00
2023-03-12T01:25:55.977Z,1.35
2023-03-12T01:27:56.852Z,0.47
2023-03-12T01:29:57.813Z,0.20
2023-03-12T01:31:58.586Z,0.13
2023-03-12T01:33:59.479Z,0.72
2023-03-12T01:36:01.091Z,0.28
2023-03-12T01:38:02.158Z,0.50
2023-03-12T01:40:03.782Z,1.22
2023-03-12T01:42:05.046Z,0.10
2023-03-12T01:44:06.913Z,0.37
2023-03-12T01:46:27.090Z,0.30
2023-03-12T01:48:30.935Z,0.40
2023-03-12T01:50:32.289Z,0.10
2023-03-12T01:52:35.190Z,0.10
2023-03-12T01:54:38.077Z,0.50
2023-03-12T01:56:39.428Z,0.47
2023-03-12T01:58:42.015Z,0.20
2023-03-12T02:00:43.805Z,1.85
2023-03-12T02:02:45.752Z,0.40
2023-03-12T02:04:50.449Z,0.53
2023-03-12T02:06:59.358Z,0.78
2023-03-12T02:09:01.507Z,0.10
2023-03-12T02:11:03.009Z,0.10
2023-03-12T02:13:04.102Z,0.23
2023-03-12T02:15:06.130Z,0.65
2023-03-12T02:17:07.820Z,0.30
2023-03-12T02:19:10.618Z,0.25
2023-03-12T02:21:25.436Z,1.02
2023-03-12T02:23:29.120Z,0.40
2023-03-12T02:25:32.424Z,0.57
2023-03-12T02:27:35.316Z,0.65
2023-03-12T02:29:37.208Z,1.45
2023-03-12T02:31:40.135Z,0.72
2023-03-12T02:33:41.390Z,0.20
2023-03-12T02:35:42.686Z,0.17
2023-03-12T02:37:47.772Z,0.10
2023-03-12T02:39:50.553Z,0.25
2023-03-12T02:41:53.365Z,0.10
2023-03-12T02:43:56.236Z,1.22
2023-03-12T02:45:57.241Z,0.75
2023-03-12T02:47:58.321Z,0.57
2023-03-12T02:49:59.184Z,1.07
2023-03-12T02:52:02.296Z,0.23
2023-03-12T02:54:03.601Z,0.65
2023-03-12T02:56:05.257Z,0.40
2023-03-12T02:58:06.354Z,0.20
2023-03-12T03:00:10.044Z,0.20
2023-03-12T03:02:12.238Z,0.40
2023-03-12T03:04:17.663Z,0.37
2023-03-12T03:06:19.580Z,0.30
2023-03-12T03:08:20.455Z,0.30
2023-03-12T03:10:22.064Z,0.20
2023-03-12T03:12:22.849Z,0.28
2023-03-12T03:14:23.915Z,0.17
2023-03-12T03:16:25.066Z,1.10
2023-03-12T03:18:28.358Z,0.30
2023-03-12T03:20:29.846Z,1.30
2023-03-12T03:22:30.769Z,3.83
2023-03-12T03:24:31.535Z,1.00
2023-03-12T03:26:32.446Z,0.93
2023-03-12T03:28:33.407Z,1.42
2023-03-12T03:30:35.092Z,0.75
2023-03-12T03:32:37.744Z,0.85
2023-03-12T03:34:38.674Z,1.75
2023-03-12T03:36:39.886Z,0.10
2023-03-12T03:38:44.644Z,0.98
2023-03-12T03:40:45.421Z,0.25
2023-03-12T03:42:46.302Z,0.30
2023-03-12T03:44:47.208Z,1.17
2023-03-12T03:46:48.612Z,0.30
2023-03-12T03:48:50.304Z,0.55
2023-03-12T03:50:51.629Z,2.87
2023-03-12T03:52:52.712Z,1.32
2023-03-12T03:54:53.917Z,0.53
2023-03-12T03:56:55.029Z,0.50
2023-03-12T03:58:56.015Z,1.55
2023-03-12T04:00:56.904Z,2.92
2023-03-12T04:02:57.990Z,2.12
2023-03-12T04:04:59.963Z,1.90
2023-03-12T04:07:01.012Z,1.60
2023-03-12T04:09:01.873Z,0.10
2023-03-12T04:11:14.104Z,0.20
2023-03-12T04:13:14.903Z,0.10
2023-03-12T04:15:16.089Z,0.70
2023-03-12T04:17:16.879Z,1.22
2023-03-12T04:19:17.882Z,0.98
2023-03-12T04:21:19.163Z,3.83
2023-03-12T04:23:21.345Z,1.52
2023-03-12T04:25:22.664Z,2.30
2023-03-12T04:27:23.474Z,2.42
2023-03-12T04:29:24.868Z,1.47
2023-03-12T04:31:26.606Z,0.62
2023-03-12T04:33:28.768Z,0.20
2023-03-12T04:35:30.470Z,0.20
2023-03-12T04:37:33.369Z,1.20
2023-03-12T04:39:35.226Z,2.27
2023-03-12T04:41:36.421Z,1.30
2023-03-12T04:43:39.326Z,1.55
2023-03-12T04:45:42.008Z,2.08
2023-03-12T04:47:43.006Z,1.72
2023-03-12T04:49:44.411Z,2.87
2023-03-12T04:51:45.337Z,2.65
2023-03-12T04:53:46.231Z,1.40
2023-03-12T04:55:47.498Z,2.20
2023-03-12T04:57:49.623Z,1.07
2023-03-12T04:59:51.064Z,1.75
2023-03-12T05:01:52.153Z,2.92
2023-03-12T05:03:54.947Z,1.65
2023-03-12T05:05:56.156Z,3.17
2023-03-12T05:07:57.049Z,3.30
2023-03-12T05:09:58.115Z,1.40
2023-03-12T05:11:59.002Z,0.10
2023-03-12T05:13:59.920Z,0.90
2023-03-12T05:16:00.863Z,2.58
2023-03-12T05:18:02.285Z,1.85
2023-03-12T05:20:05.522Z,2.47
2023-03-12T05:22:06.516Z,5.37
2023-03-12T05:24:08.170Z,2.20
2023-03-12T05:26:16.991Z,2.27
2023-03-12T05:28:19.401Z,3.95
2023-03-12T05:30:20.739Z,3.55
2023-03-12T05:32:22.052Z,2.92
2023-03-12T05:34:23.339Z,2.55
2023-03-12T05:36:24.641Z,3.33
2023-03-12T05:38:25.522Z,1.07
2023-03-12T05:40:26.762Z,2.25
2023-03-12T05:42:27.656Z,2.50
2023-03-12T05:44:29.358Z,1.40
2023-03-12T05:46:30.249Z,1.85
2023-03-12T05:48:32.356Z,0.40
2023-03-12T05:50:33.236Z,3.87
2023-03-12T05:52:34.229Z,2.30
2023-03-12T05:54:35.130Z,2.77
2023-03-12T05:56:37.325Z,4.75
2023-03-12T05:58:39.210Z,1.42
2023-03-12T06:00:41.033Z,4.37
2023-03-12T06:02:42.801Z,4.15
2023-03-12T06:04:43.978Z,1.20
2023-03-12T06:06:44.809Z,0.82
2023-03-12T06:08:46.795Z,2.15
2023-03-12T06:10:49.682Z,2.35
2023-03-12T06:12:50.565Z,4.10
2023-03-12T06:14:51.481Z,1.77
2023-03-12T06:16:52.550Z,0.60
2023-03-12T06:18:54.616Z,4.17
2023-03-12T06:20:55.498Z,0.30
2023-03-12T06:22:56.317Z,0.37
2023-03-12T06:24:57.216Z,1.65
2023-03-12T06:26:58.897Z,1.67
2023-03-12T06:28:59.798Z,1.15
2023-03-12T06:31:00.798Z,2.00
2023-03-12T06:33:03.621Z,1.25
2023-03-12T06:35:05.260Z,0.90
2023-03-12T06:37:06.140Z,3.52
2023-03-12T06:39:08.541Z,2.77
2023-03-12T06:41:13.474Z,4.50
2023-03-12T06:43:14.348Z,8.55
2023-03-12T06:45:15.145Z,7.28
2023-03-12T06:47:17.596Z,3.35
2023-03-12T06:49:18.624Z,4.85
2023-03-12T06:51:19.392Z,1.95
2023-03-12T06:53:20.791Z,0.35
2023-03-12T06:55:21.566Z,2.35
2023-03-12T06:57:22.353Z,3.02
2023-03-12T06:59:23.252Z,8.68
2023-03-12T07:01:24.033Z,8.55
2023-03-12T07:03:25.416Z,3.70
2023-03-12T07:05:28.773Z,5.25
2023-03-12T07:07:29.320Z,6.67
2023-03-12T07:09:30.101Z,1.55
2023-03-12T07:11:31.035Z,3.47
2023-03-12T07:13:31.903Z,1.15
2023-03-12T07:15:33.196Z,1.65
2023-03-12T07:17:34.095Z,2.47
2023-03-12T07:19:34.983Z,2.70
2023-03-12T07:21:35.769Z,1.22
2023-03-12T07:23:36.554Z,1.42
2023-03-12T07:25:38.630Z,2.52
2023-03-12T07:27:39.527Z,3.05
2023-03-12T07:29:40.474Z,5.22
2023-03-12T07:31:41.511Z,3.40
2023-03-12T07:33:42.464Z,3.72
2023-03-12T07:35:44.746Z,5.22
2023-03-12T07:37:45.669Z,5.05
2023-03-12T07:39:48.454Z,3.77
2023-03-12T07:41:49.512Z,1.22
2023-03-12T07:43:50.418Z,3.98
2023-03-12T07:45:51.575Z,6.00
2023-03-12T07:47:52.553Z,2.47
2023-03-12T07:49:53.505Z,1.52
2023-03-12T07:51:54.574Z,4.92
2023-03-12T07:53:55.536Z,3.58
2023-03-12T07:55:56.482Z,3.77
2023-03-12T07:57:58.322Z,6.28
2023-03-12T07:59:59.177Z,4.30
2023-03-12T08:02:00.127Z,3.58
2023-03-12T08:04:01.548Z,6.47
2023-03-12T08:06:03.343Z,3.47
2023-03-12T08:08:04.656Z,2.40
2023-03-12T08:10:06.738Z,4.95
2023-03-12T08:12:08.167Z,3.15
2023-03-12T08:14:09.082Z,3.72
2023-03-12T08:16:10.287Z,3.77
2023-03-12T08:18:11.080Z,2.65
2023-03-12T08:20:13.475Z,2.35
2023-03-12T08:22:14.344Z,3.95
2023-03-12T08:24:15.129Z,3.70
2023-03-12T08:26:15.906Z,2.70
2023-03-12T08:28:17.103Z,4.22
2023-03-12T08:30:18.089Z,3.33
2023-03-12T08:32:18.977Z,3.15
2023-03-12T08:34:20.163Z,2.45
2023-03-12T08:36:22.502Z,2.92
2023-03-12T08:38:23.926Z,1.82
2023-03-12T08:40:24.751Z,1.95
2023-03-12T08:42:25.684Z,1.12
2023-03-12T08:44:26.486Z,1.05
2023-03-12T08:46:27.398Z,1.75
2023-03-12T08:48:29.086Z,1.35
2023-03-12T08:50:31.555Z,0.60
2023-03-12T08:52:32.450Z,1.87
2023-03-12T08:54:33.242Z,1.65
2023-03-12T08:56:36.434Z,0.30
2023-03-12T08:58:37.315Z,2.30
2023-03-12T09:00:38.203Z,1.60
2023-03-12T09:02:39.168Z,2.77
2023-03-12T09:04:40.108Z,0.40
2023-03-12T09:06:40.950Z,2.05
2023-03-12T09:08:42.545Z,0.80
2023-03-12T09:10:47.541Z,0.85
2023-03-12T09:12:48.494Z,1.47
2023-03-12T09:15:02.943Z,0.93
2023-03-12T09:16:52.834Z,1.80
2023-03-12T09:18:53.834Z,0.85
2023-03-12T09:20:55.030Z,2.12
2023-03-12T09:22:55.910Z,1.15
2023-03-12T09:24:56.835Z,1.05
2023-03-12T09:26:57.693Z,1.57
2023-03-12T09:28:58.578Z,0.78
2023-03-12T09:31:00.803Z,1.57
2023-03-12T09:33:01.915Z,1.55
2023-03-12T09:35:03.256Z,1.87
2023-03-12T09:37:04.153Z,1.27
2023-03-12T09:39:06.024Z,1.15
2023-03-12T09:41:08.750Z,0.88
2023-03-12T09:43:11.596Z,0.90
2023-03-12T09:45:14.395Z,1.05
2023-03-12T09:47:19.966Z,2.25
2023-03-12T09:49:31.972Z,1.15
2023-03-12T09:51:38.827Z,1.05
2023-03-12T09:53:46.358Z,1.37
2023-03-12T09:55:48.426Z,1.85
2023-03-12T09:57:50.712Z,0.78
2023-03-12T09:59:51.682Z,1.55
2023-03-12T10:02:00.490Z,1.10
2023-03-12T10:04:18.464Z,1.17
2023-03-12T10:06:22.062Z,0.33
2023-03-12T10:08:30.361Z,1.35
2023-03-12T10:10:29.509Z,0.40
2023-03-12T10:12:49.012Z,0.95
2023-03-12T10:15:08.554Z,0.70
2023-03-12T10:17:17.194Z,1.15
2023-03-12T10:19:26.083Z,0.60
2023-03-12T10:21:37.989Z,1.20
2023-03-12T10:23:57.398Z,0.75
2023-03-12T10:26:08.981Z,1.17
2023-03-12T10:28:23.917Z,1.57
2023-03-12T10:30:27.014Z,0.33
2023-03-12T10:32:29.857Z,1.15
2023-03-12T10:34:36.829Z,0.98
2023-03-12T10:36:38.806Z,0.62
2023-03-12T10:38:39.718Z,1.17
2023-03-12T10:40:40.604Z,0.40
2023-03-12T10:42:42.417Z,0.10
2023-03-12T10:44:44.098Z,0.30
2023-03-12T10:46:56.099Z,0.50
2023-03-12T10:49:15.874Z,1.05
2023-03-12T10:51:16.770Z,0.80
2023-03-12T10:53:23.112Z,0.42
2023-03-12T10:57:26.746Z,1.25
2023-03-12T10:59:29.227Z,1.35
2023-03-12T11:01:30.937Z,0.62
2023-03-12T11:03:33.290Z,2.27
2023-03-12T11:05:39.061Z,1.40
2023-03-12T11:07:41.846Z,0.98
2023-03-12T11:09:42.831Z,1.57
2023-03-12T11:11:46.617Z,1.55
2023-03-12T11:13:49.406Z,0.88
2023-03-12T11:15:52.006Z,0.55
2023-03-12T11:17:54.864Z,1.12
2023-03-12T11:19:55.752Z,1.12
2023-03-12T11:22:01.649Z,1.70
2023-03-12T11:24:06.325Z,0.90
2023-03-12T11:26:18.498Z,0.65
2023-03-12T11:28:21.306Z,1.67
2023-03-12T11:30:30.134Z,0.88
2023-03-12T11:32:33.217Z,1.40
2023-03-12T11:34:36.006Z,0.62
2023-03-12T11:36:53.861Z,1.27
2023-03-12T11:38:56.550Z,1.17
2023-03-12T11:41:11.202Z,2.52
2023-03-12T11:43:42.872Z,1.40
2023-03-12T11:45:38.171Z,2.30
2023-03-12T11:47:50.395Z,2.65
2023-03-12T11:49:53.372Z,1.22
2023-03-12T11:52:05.206Z,2.20
2023-03-12T11:54:07.973Z,1.70
2023-03-12T11:56:27.672Z,1.50
2023-03-12T11:58:33.317Z,0.47
2023-03-12T12:00:36.097Z,1.02
2023-03-12T12:02:44.677Z,1.17
2023-03-12T12:04:53.229Z,1.32
2023-03-12T12:06:59.002Z,1.62
2023-03-12T12:09:01.790Z,2.33
2023-03-12T12:11:16.488Z,1.22
2023-03-12T12:13:19.562Z,2.37
2023-03-12T12:15:25.064Z,1.27
2023-03-12T12:17:39.677Z,0.65
2023-03-12T12:19:42.491Z,1.87
2023-03-12T12:21:51.443Z,3.20
2023-03-12T12:23:54.551Z,1.55
2023-03-12T12:26:00.183Z,3.08
2023-03-12T12:28:19.702Z,2.40
2023-03-12T12:30:22.378Z,1.70
2023-03-12T12:32:25.082Z,1.75
2023-03-12T12:34:36.931Z,1.50
2023-03-12T12:36:38.418Z,1.25
2023-03-12T12:38:41.346Z,1.20
2023-03-12T12:40:44.113Z,1.95
2023-03-12T12:42:52.571Z,0.95
2023-03-12T12:44:54.665Z,1.77
2023-03-12T12:46:58.086Z,0.57
2023-03-12T12:49:01.057Z,1.62
2023-03-12T12:51:03.273Z,0.82
2023-03-12T12:53:21.105Z,0.93
2023-03-12T12:55:30.094Z,1.27
2023-03-12T12:57:49.566Z,0.80
2023-03-12T12:59:52.379Z,0.80
2023-03-12T13:01:54.570Z,1.00
2023-03-12T13:04:12.662Z,1.45
2023-03-12T13:06:13.532Z,1.10
2023-03-12T13:08:16.306Z,0.82
2023-03-12T13:10:34.421Z,0.53
2023-03-12T13:12:37.966Z,1.35
2023-03-12T13:14:39.968Z,0.93
2023-03-12T13:16:42.442Z,1.45
2023-03-12T13:18:45.120Z,1.32
2023-03-12T13:20:47.800Z,1.35
2023-03-12T13:22:53.264Z,0.37
2023-03-12T13:25:12.455Z,0.75
2023-03-12T13:27:15.215Z,0.35
2023-03-12T13:29:20.811Z,0.60
2023-03-12T13:31:29.582Z,0.30
2023-03-12T13:33:38.193Z,0.60
2023-03-12T13:35:39.556Z,0.37
2023-03-12T13:37:48.418Z,1.25
2023-03-12T13:39:50.111Z,1.05
2023-03-12T13:41:52.792Z,0.50
2023-03-12T13:43:55.481Z,0.30
2023-03-12T13:46:00.516Z,0.30
2023-03-12T13:48:02.076Z,0.90
2023-03-12T13:50:07.823Z,0.57
2023-03-12T13:52:23.184Z,0.40
2023-03-12T13:54:25.955Z,0.50
2023-03-12T13:56:28.715Z,0.82
2023-03-12T13:58:30.278Z,0.85
2023-03-12T14:00:39.712Z,0.45
2023-03-12T14:02:42.464Z,1.20
2023-03-12T14:04:43.573Z,1.82
2023-03-12T14:06:55.884Z,2.08
2023-03-12T14:09:01.654Z,3.60
2023-03-12T14:11:04.535Z,2.02
2023-03-12T14:13:10.022Z,0.95
2023-03-12T14:15:15.517Z,1.57
2023-03-12T14:17:18.394Z,0.50
2023-03-12T14:19:21.188Z,1.55
2023-03-12T14:21:22.561Z,0.40
2023-03-12T14:23:25.437Z,1.35
2023-03-12T14:25:28.170Z,0.75
2023-03-12T14:27:30.903Z,1.82
2023-03-12T14:29:36.650Z,0.82
2023-03-12T14:31:37.801Z,1.12
2023-03-12T14:33:49.330Z,1.42
2023-03-12T14:36:04.213Z,0.75
2023-03-12T14:38:19.610Z,0.53
2023-03-12T14:40:22.393Z,0.62
2023-03-12T14:42:25.459Z,1.40
2023-03-12T14:44:27.970Z,1.37
2023-03-12T14:46:28.866Z,2.55
2023-03-12T14:48:31.171Z,2.10
2023-03-12T14:50:39.505Z,1.47
2023-03-12T14:52:40.548Z,1.00
2023-03-12T14:54:43.220Z,1.37
2023-03-12T14:56:45.897Z,1.15
2023-03-12T14:58:48.037Z,1.90
2023-03-12T15:01:02.740Z,1.45
2023-03-12T15:03:04.676Z,1.07
2023-03-12T15:05:05.875Z,1.02
2023-03-12T15:07:08.627Z,0.82
2023-03-12T15:09:11.293Z,1.42
2023-03-12T15:11:12.069Z,0.25
2023-03-12T15:13:13.212Z,0.40
2023-03-12T15:15:35.417Z,1.17
2023-03-12T15:17:36.883Z,1.22
2023-03-12T15:19:39.521Z,0.20
2023-03-12T15:21:40.453Z,2.20
2023-03-12T15:23:42.326Z,2.52
2023-03-12T15:25:44.349Z,1.80
2023-03-12T15:27:45.232Z,2.20
2023-03-12T15:29:46.070Z,0.75
2023-03-12T15:31:48.141Z,0.50
2023-03-12T15:34:03.393Z,0.65
2023-03-12T15:36:06.376Z,0.85
2023-03-12T15:38:14.729Z,1.10
2023-03-12T15:40:17.730Z,1.62
2023-03-12T15:42:20.359Z,1.02
2023-03-12T15:44:22.912Z,1.32
2023-03-12T15:46:24.442Z,0.65
2023-03-12T15:48:33.024Z,1.02
2023-03-12T15:50:36.081Z,0.40
2023-03-12T15:52:36.969Z,0.65
2023-03-12T15:54:39.832Z,0.80
2023-03-12T15:56:40.716Z,0.42
2023-03-12T15:58:41.546Z,0.30
2023-03-12T16:00:43.367Z,0.85
2023-03-12T16:02:49.626Z,0.47
2023-03-12T16:06:52.656Z,0.50
2023-03-12T16:09:00.535Z,1.70
2023-03-12T16:11:01.415Z,0.53
2023-03-12T16:13:04.491Z,0.82
2023-03-12T16:15:05.595Z,0.42
2023-03-12T16:17:08.256Z,0.98
2023-03-12T16:19:10.770Z,1.17
2023-03-12T16:21:12.013Z,0.82
2023-03-12T16:23:12.897Z,0.95
2023-03-12T16:25:13.795Z,0.60
2023-03-12T16:27:18.088Z,0.60
2023-03-12T16:29:18.784Z,1.67
2023-03-12T16:31:19.738Z,1.87
2023-03-12T16:33:21.629Z,0.85
2023-03-12T16:35:22.768Z,0.65
2023-03-12T16:37:24.892Z,0.65
2023-03-12T16:39:27.560Z,0.75
2023-03-12T16:41:28.344Z,1.27
2023-03-12T16:43:31.018Z,0.37
2023-03-12T16:45:35.667Z,1.30
2023-03-12T16:47:37.165Z,1.02
2023-03-12T16:49:38.132Z,0.72
2023-03-12T16:51:39.036Z,0.90
2023-03-12T16:53:39.919Z,0.40
2023-03-12T16:55:45.707Z,1.40
2023-03-12T16:57:48.484Z,0.68
2023-03-12T16:59:49.721Z,0.85
2023-03-12T17:01:51.060Z,0.75
2023-03-12T17:03:53.799Z,1.20
2023-03-12T17:05:54.740Z,0.90
2023-03-12T17:08:01.381Z,0.50
2023-03-12T17:10:06.423Z,0.88
2023-03-12T17:12:17.126Z,0.30
2023-03-12T17:14:24.871Z,1.35
2023-03-12T17:16:26.149Z,2.85
2023-03-12T17:18:27.045Z,1.22
2023-03-12T17:20:28.420Z,2.02
2023-03-12T17:22:29.421Z,0.45
2023-03-12T17:24:30.292Z,0.82
2023-03-12T17:26:31.667Z,2.02
2023-03-12T17:28:33.182Z,0.90
2023-03-12T17:30:34.768Z,0.53
2023-03-12T17:32:35.760Z,0.60
2023-03-12T17:34:36.608Z,0.57
2023-03-12T17:36:37.880Z,1.12
2023-03-12T17:38:38.868Z,0.78
2023-03-12T17:40:40.773Z,1.95
2023-03-12T17:42:41.875Z,0.37
2023-03-12T17:44:42.665Z,1.45
2023-03-12T17:46:56.574Z,0.95
2023-03-12T17:48:46.326Z,1.30
2023-03-12T17:50:47.243Z,1.00
2023-03-12T17:52:48.126Z,0.13
2023-03-12T17:54:49.218Z,1.30
2023-03-12T17:56:50.297Z,0.72
2023-03-12T17:58:51.090Z,0.82
2023-03-12T18:00:51.971Z,1.10
2023-03-12T18:02:52.805Z,1.30
2023-03-12T18:04:53.841Z,0.80
2023-03-12T18:06:54.834Z,2.30
2023-03-12T18:08:55.687Z,0.95
2023-03-12T18:10:56.577Z,1.02
2023-03-12T18:12:57.372Z,1.35
2023-03-12T18:14:58.253Z,1.12
2023-03-12T18:16:59.046Z,0.98
2023-03-12T18:18:59.928Z,0.82
2023-03-12T18:21:00.788Z,0.62
2023-03-12T18:23:01.872Z,0.37
2023-03-12T18:25:03.177Z,2.20
2023-03-12T18:27:04.092Z,1.35
2023-03-12T18:29:04.997Z,1.55
2023-03-12T18:31:05.806Z,1.57
2023-03-12T18:33:06.675Z,1.15
2023-03-12T18:35:08.063Z,1.07
2023-03-12T18:37:08.964Z,1.15
2023-03-12T18:39:09.827Z,1.42
2023-03-12T18:41:11.609Z,1.95
2023-03-12T18:43:12.826Z,1.27
2023-03-12T18:45:13.835Z,1.62
2023-03-12T18:47:14.737Z,1.80
2023-03-12T18:49:15.809Z,1.05
2023-03-12T18:51:16.706Z,2.83
2023-03-12T18:53:17.594Z,2.45
2023-03-12T18:55:18.493Z,1.45
2023-03-12T18:57:19.638Z,2.22
2023-03-12T18:59:21.978Z,4.65
2023-03-12T19:01:22.803Z,4.12
2023-03-12T19:03:24.358Z,4.78
2023-03-12T19:05:25.291Z,3.87
2023-03-12T19:07:26.178Z,3.25
2023-03-12T19:09:26.971Z,2.60
2023-03-12T19:11:27.829Z,3.75
2023-03-12T19:13:28.650Z,4.17
2023-03-12T19:15:30.326Z,5.58
2023-03-12T19:17:31.418Z,4.78
2023-03-12T19:19:32.228Z,3.33
2023-03-12T19:21:33.103Z,6.95
2023-03-12T19:23:34.882Z,5.72
2023-03-12T19:25:35.782Z,5.55
2023-03-12T19:27:36.709Z,6.78
2023-03-12T19:29:37.586Z,5.30
2023-03-12T19:31:38.432Z,7.72
2023-03-12T19:33:39.518Z,5.95
2023-03-12T19:35:41.050Z,8.08
2023-03-12T19:37:42.046Z,3.58
2023-03-12T19:39:43.191Z,7.42
2023-03-12T19:41:44.073Z,6.60
2023-03-12T19:43:45.076Z,7.72
2023-03-12T19:45:46.369Z,2.85
2023-03-12T19:47:49.049Z,9.83
2023-03-12T19:49:49.838Z,9.90
2023-03-12T19:51:50.613Z,8.43
2023-03-12T19:53:51.476Z,8.40
2023-03-12T19:55:52.268Z,6.33
2023-03-12T19:57:53.484Z,9.08
2023-03-12T19:59:54.360Z,9.38
2023-03-12T20:01:55.417Z,7.28
2023-03-12T20:03:56.332Z,9.43
2023-03-12T20:05:57.101Z,9.25
2023-03-12T20:07:57.973Z,4.50
2023-03-12T20:09:59.073Z,9.60
2023-03-12T20:12:00.540Z,9.85
2023-03-12T20:14:02.053Z,7.75
2023-03-12T20:16:04.198Z,8.88
2023-03-12T20:18:05.222Z,5.30
2023-03-12T20:20:08.060Z,7.90
2023-03-12T20:22:08.935Z,4.75
2023-03-12T20:24:10.614Z,7.80
2023-03-12T20:26:11.449Z,12.05
2023-03-12T20:28:12.275Z,7.72
2023-03-12T20:30:13.378Z,14.20
2023-03-12T20:32:14.222Z,2.55
2023-03-12T20:34:15.252Z,9.70
2023-03-12T20:36:16.167Z,13.88
2023-03-12T20:38:17.047Z,9.43
2023-03-12T20:40:18.064Z,3.15
2023-03-12T20:42:18.852Z,0.93
2023-03-12T20:44:19.647Z,5.75
2023-03-12T20:46:20.763Z,8.15
2023-03-12T20:48:21.616Z,14.60
2023-03-12T20:50:22.489Z,6.60
2023-03-12T20:52:23.284Z,1.22
2023-03-12T20:54:24.378Z,8.78
2023-03-12T20:56:25.262Z,11.70
2023-03-12T20:58:26.192Z,10.50
2023-03-12T21:00:26.967Z,6.42
2023-03-12T21:02:27.855Z,1.45
2023-03-12T21:04:28.720Z,10.50
2023-03-12T21:06:29.485Z,6.03
2023-03-12T21:08:30.382Z,5.00
2023-03-12T21:10:33.157Z,6.40
2023-03-12T21:12:33.930Z,7.05
2023-03-12T21:14:34.746Z,1.70
2023-03-12T21:16:36.130Z,5.00
2023-03-12T21:18:37.132Z,7.05
2023-03-12T21:20:39.322Z,2.75
2023-03-12T21:22:42.110Z,4.62
2023-03-12T21:24:43.096Z,12.18
2023-03-12T21:26:43.890Z,10.95
2023-03-12T21:28:44.908Z,10.38
2023-03-12T21:30:45.838Z,7.90
2023-03-12T21:32:47.037Z,6.50
2023-03-12T21:34:48.480Z,2.37
2023-03-12T21:36:49.257Z,4.78
2023-03-12T21:38:51.348Z,9.68
2023-03-12T21:40:53.552Z,13.22
2023-03-12T21:42:54.425Z,7.92
2023-03-12T21:44:55.910Z,5.30
2023-03-12T21:46:56.788Z,11.57
2023-03-12T21:48:58.197Z,5.22
2023-03-12T21:51:03.817Z,4.60
2023-03-12T21:53:11.642Z,8.73
2023-03-12T21:55:07.947Z,6.37
2023-03-12T21:57:08.891Z,2.62
2023-03-12T21:59:10.093Z,4.40
2023-03-12T22:01:13.052Z,9.28
2023-03-12T22:03:13.991Z,5.95
2023-03-12T22:05:14.889Z,5.20
2023-03-12T22:07:15.665Z,5.90
2023-03-12T22:09:17.152Z,3.33
2023-03-12T22:11:18.393Z,5.42
2023-03-12T22:13:22.194Z,5.22
2023-03-12T22:15:23.289Z,7.15
2023-03-12T22:17:24.385Z,2.77
2023-03-12T22:19:25.331Z,5.60
2023-03-12T22:21:26.498Z,2.20
2023-03-12T22:23:27.617Z,5.75
2023-03-12T22:25:28.490Z,5.35
2023-03-12T22:27:30.170Z,4.40
2023-03-12T22:29:31.112Z,8.85
2023-03-12T22:31:32.064Z,2.10
2023-03-12T22:33:35.082Z,2.17
2023-03-12T22:35:42.491Z,0.65
2023-03-12T22:37:44.498Z,3.08
2023-03-12T22:39:45.385Z,2.80
2023-03-12T22:41:49.686Z,4.37
2023-03-12T22:43:51.366Z,5.83
2023-03-12T22:45:53.066Z,1.15
2023-03-12T22:47:53.950Z,4.78
2023-03-12T22:49:56.736Z,1.00
2023-03-12T22:51:57.610Z,5.65
2023-03-12T22:53:58.808Z,5.20
2023-03-12T22:56:01.409Z,5.95
2023-03-12T22:58:02.303Z,4.17
2023-03-12T23:00:05.835Z,4.17
2023-03-12T23:02:06.781Z,4.65
2023-03-12T23:04:07.712Z,5.00
2023-03-12T23:06:09.521Z,4.35
2023-03-12T23:08:10.510Z,3.10
2023-03-12T23:10:11.408Z,3.25
2023-03-12T23:12:12.368Z,3.80
2023-03-12T23:14:13.237Z,6.58
2023-03-12T23:16:16.099Z,0.90
2023-03-12T23:18:17.845Z,3.75
2023-03-12T23:20:18.785Z,8.28
2023-03-12T23:22:19.672Z,2.72
2023-03-12T23:24:21.477Z,4.72
2023-03-12T23:26:26.162Z,3.27
2023-03-12T23:28:27.745Z,4.42
2023-03-12T23:30:28.556Z,2.47
2023-03-12T23:32:29.398Z,4.47
2023-03-12T23:34:32.206Z,6.15
2023-03-12T23:36:33.223Z,5.97
2023-03-12T23:38:37.306Z,1.60
2023-03-12T23:40:37.313Z,1.47
2023-03-12T23:42:40.223Z,7.90
2023-03-12T23:44:41.110Z,5.42
2023-03-12T23:46:43.799Z,1.95
2023-03-12T23:48:45.095Z,2.77
2023-03-12T23:50:45.966Z,1.95
2023-03-12T23:52:46.847Z,2.92
2023-03-12T23:54:47.910Z,5.75
2023-03-12T23:56:48.789Z,4.60
2023-03-12T23:58:50.472Z,5.05
